Time;durP1;ratioP1;P1;durP2;ratioP2;P2;SDS_P1;SDS_P2;PMS_P1;PMS_P2;Temp;Humidity;BMP_temperature;BMP_pressure;BME280_temperature;BME280_humidity;BME280_pressure;Samples;Min_cycle;Max_cycle;Signal;HPM_P1;HPM_P2
2022/11/18 00:02:30;;;;;;;9.40;2.05;;;;;;;8.32;100.00;99456.09;5205674;28;20026;-75
2022/11/18 00:05:00;;;;;;;6.63;1.98;;;;;;;8.35;100.00;99465.59;5205860;28;20024;-75
2022/11/18 00:07:30;;;;;;;7.95;1.80;;;;;;;8.38;100.00;99462.56;5205400;28;20367;-75
2022/11/18 00:10:01;;;;;;;6.85;1.70;;;;;;;8.35;100.00;99470.94;5205277;28;20055;-75
2022/11/18 00:15:20;;;;;;;13.77;2.03;;;;;;;8.29;100.00;99481.34;5205671;28;20045;-75
2022/11/18 00:17:51;;;;;;;8.65;2.25;;;;;;;8.32;100.00;99475.63;5205086;28;20104;-75
2022/11/18 00:20:21;;;;;;;6.00;1.80;;;;;;;8.35;100.00;99485.13;5205849;28;20051;-72
2022/11/18 00:22:52;;;;;;;11.50;2.33;;;;;;;8.33;100.00;99484.47;5205509;28;20445;-72
2022/11/18 00:25:22;;;;;;;5.18;1.85;;;;;;;8.32;100.00;99493.50;5204209;28;20087;-72
2022/11/18 00:27:53;;;;;;;8.48;1.88;;;;;;;8.31;100.00;99506.03;5192986;28;20057;-73
2022/11/18 00:30:24;;;;;;;4.57;1.80;;;;;;;8.29;100.00;99508.06;5203881;28;20034;-73
2022/11/18 00:32:54;;;;;;;4.68;2.25;;;;;;;8.31;100.00;99506.03;5201424;28;20067;-74
2022/11/18 00:35:25;;;;;;;11.85;1.80;;;;;;;8.33;100.00;99508.50;5192039;28;20029;-74
2022/11/18 00:37:55;;;;;;;5.03;1.70;;;;;;;8.37;100.00;99507.16;5204425;28;20475;-74
2022/11/18 00:40:26;;;;;;;6.13;1.80;;;;;;;8.41;100.00;99510.31;5205199;28;20440;-75
2022/11/18 00:42:56;;;;;;;5.47;1.60;;;;;;;8.42;100.00;99515.47;5204733;28;20028;-75
2022/11/18 00:45:27;;;;;;;11.00;1.77;;;;;;;8.43;100.00;99510.94;5204610;28;20017;-75
2022/11/18 00:47:57;;;;;;;5.93;1.60;;;;;;;8.46;100.00;99524.78;5204265;28;20112;-75
2022/11/18 00:50:28;;;;;;;5.85;1.80;;;;;;;8.48;100.00;99522.75;5204917;28;20502;-75
2022/11/18 00:52:58;;;;;;;5.43;1.58;;;;;;;8.50;100.00;99523.41;5204820;28;20458;-75
2022/11/18 00:55:28;;;;;;;11.75;1.90;;;;;;;8.52;100.00;99516.00;5204732;28;20025;-75
2022/11/18 00:57:59;;;;;;;9.13;2.00;;;;;;;8.54;100.00;99518.53;5202438;28;20021;-75
2022/11/18 01:00:29;;;;;;;5.97;1.50;;;;;;;8.56;100.00;99528.00;5204640;28;20437;-75
2022/11/18 01:03:01;;;;;;;6.97;2.03;;;;;;;8.55;100.00;99523.66;5204859;28;20044;-75
2022/11/18 01:05:31;;;;;;;5.35;2.13;;;;;;;8.54;100.00;99531.88;5204448;28;20490;-75
2022/11/18 01:08:03;;;;;;;7.68;2.08;;;;;;;8.53;100.00;99524.84;5204308;28;20022;-75
2022/11/18 01:10:34;;;;;;;6.55;1.55;;;;;;;8.51;100.00;99532.25;5204109;28;20507;-75
2022/11/18 01:13:19;;;;;;;5.43;1.50;;;;;;;8.49;100.00;99535.09;5204419;28;20025;-75
2022/11/18 01:15:55;;;;;;;3.83;1.73;;;;;;;8.48;100.00;99537.94;5204333;28;20083;-75
2022/11/18 01:18:29;;;;;;;11.18;1.83;;;;;;;8.49;100.00;99542.31;5203704;28;20029;-75
2022/11/18 01:21:01;;;;;;;3.78;1.75;;;;;;;8.47;100.00;99547.81;5203955;28;20025;-75
2022/11/18 01:23:32;;;;;;;6.13;1.58;;;;;;;8.48;100.00;99541.47;5204092;28;20108;-75
2022/11/18 01:26:05;;;;;;;5.65;1.65;;;;;;;8.48;100.00;99546.81;5200722;28;20108;-75
2022/11/18 01:28:35;;;;;;;9.52;1.80;;;;;;;8.47;100.00;99544.31;5190288;28;20057;-74
2022/11/18 01:31:12;;;;;;;5.85;1.63;;;;;;;8.44;100.00;99556.22;5201077;28;20053;-75
2022/11/18 01:33:43;;;;;;;7.80;2.28;;;;;;;8.43;100.00;99545.69;5204000;28;20083;-75
2022/11/18 01:36:22;;;;;;;6.50;1.80;;;;;;;8.43;100.00;99551.03;5204054;28;20029;-74
2022/11/18 01:38:54;;;;;;;9.25;1.83;;;;;;;8.39;100.00;99558.59;5203733;28;20033;-75
2022/11/18 01:41:25;;;;;;;5.93;1.63;;;;;;;8.39;100.00;99566.63;5204093;28;20032;-75
2022/11/18 01:43:56;;;;;;;7.53;2.25;;;;;;;8.38;100.00;99572.13;5203613;28;20461;-74
2022/11/18 01:46:29;;;;;;;6.40;1.88;;;;;;;8.38;100.00;99580.16;5203703;28;20025;-75
2022/11/18 01:49:05;;;;;;;8.35;2.30;;;;;;;8.40;100.00;99578.97;5203366;28;20036;-74
2022/11/18 01:51:43;;;;;;;9.57;2.13;;;;;;;8.42;100.00;99584.94;5203913;28;20068;-75
2022/11/18 01:54:20;;;;;;;6.97;2.40;;;;;;;8.43;100.00;99589.28;5203281;28;20033;-75
2022/11/18 01:56:55;;;;;;;9.45;1.80;;;;;;;8.44;100.00;99592.81;5203552;28;20100;-74
2022/11/18 01:59:30;;;;;;;3.78;1.95;;;;;;;8.44;100.00;99592.81;5203790;28;20029;-74
2022/11/18 02:02:07;;;;;;;4.10;1.80;;;;;;;8.41;100.00;99599.34;5204754;28;20021;-73
2022/11/18 02:04:43;;;;;;;9.63;2.28;;;;;;;8.33;100.00;99599.38;5203683;28;20048;-74
2022/11/18 02:07:14;;;;;;;7.32;1.70;;;;;;;8.24;100.00;99605.81;5203542;28;20030;-73
2022/11/18 02:09:45;;;;;;;7.60;2.60;;;;;;;8.14;100.00;99607.94;5203819;28;20052;-73
2022/11/18 02:12:16;;;;;;;7.07;1.45;;;;;;;8.03;100.00;99612.69;5204022;28;20028;-74
2022/11/18 02:14:47;;;;;;;6.22;1.85;;;;;;;7.99;100.00;99619.38;5202870;28;20042;-74
2022/11/18 02:17:39;;;;;;;6.50;1.85;;;;;;;7.91;100.00;99615.94;5202989;28;20018;-73
2022/11/18 02:20:35;;;;;;;6.18;1.60;;;;;;;7.83;100.00;99624.00;5203647;28;20091;-74
2022/11/18 02:23:30;;;;;;;6.68;2.03;;;;;;;7.74;100.00;99639.28;5203989;28;20101;-73
2022/11/18 02:26:23;;;;;;;11.15;2.20;;;;;;;7.63;100.00;99635.19;5193242;28;20026;-74
2022/11/18 02:28:53;;;;;;;5.95;1.75;;;;;;;7.55;100.00;99642.41;5190121;28;20437;-74
2022/11/18 02:31:33;;;;;;;7.40;2.05;;;;;;;7.47;100.00;99653.94;5203525;28;20029;-74
2022/11/18 02:34:14;;;;;;;6.07;1.88;;;;;;;7.39;100.00;99646.81;5203505;28;20479;-73
2022/11/18 02:36:54;;;;;;;5.95;1.77;;;;;;;7.37;100.00;99656.81;5203579;28;20021;-73
2022/11/18 02:39:33;;;;;;;4.07;1.73;;;;;;;7.40;100.00;99656.47;5203633;28;20037;-74
2022/11/18 02:42:10;;;;;;;6.88;2.28;;;;;;;7.39;100.00;99648.66;5203428;28;20276;-74
2022/11/18 02:44:47;;;;;;;4.53;1.80;;;;;;;7.39;100.00;99656.66;5203581;28;20425;-74
2022/11/18 02:47:20;;;;;;;12.23;1.73;;;;;;;7.35;100.00;99666.84;5203321;28;20033;-73
2022/11/18 02:49:56;;;;;;;6.75;1.70;;;;;;;7.32;100.00;99664.50;5202296;28;20021;-74
2022/11/18 02:52:27;;;;;;;4.68;1.58;;;;;;;7.32;100.00;99659.19;5203176;28;20030;-73
2022/11/18 02:55:00;;;;;;;6.03;1.90;;;;;;;7.25;100.00;99661.72;5203644;28;20087;-74
2022/11/18 02:57:32;;;;;;;9.40;2.22;;;;;;;7.19;100.00;99667.75;5203065;28;20033;-74
2022/11/18 03:00:07;;;;;;;9.23;2.35;;;;;;;7.15;100.00;99665.59;5203581;28;20442;-74
2022/11/18 03:02:44;;;;;;;17.42;3.03;;;;;;;7.13;100.00;99678.25;5203355;28;20037;-73
2022/11/18 03:05:25;;;;;;;5.03;2.05;;;;;;;7.14;100.00;99678.13;5203097;28;20104;-73
2022/11/18 03:08:09;;;;;;;5.90;1.70;;;;;;;7.18;100.00;99678.59;5203035;28;20030;-74
2022/11/18 03:11:01;;;;;;;10.70;3.05;;;;;;;7.20;100.00;99680.09;5203321;28;20471;-74
2022/11/18 03:13:44;;;;;;;8.07;2.75;;;;;;;7.24;100.00;99683.25;5206050;28;20357;-74
2022/11/18 03:16:24;;;;;;;14.38;3.85;;;;;;;7.24;100.00;99692.06;5206968;28;20063;-73
2022/11/18 03:19:02;;;;;;;10.43;3.03;;;;;;;7.24;100.00;99688.59;5206391;28;20076;-73
2022/11/18 03:21:39;;;;;;;9.32;2.33;;;;;;;7.25;100.00;99701.75;5206568;28;20029;-73
2022/11/18 03:24:24;;;;;;;11.00;2.10;;;;;;;7.18;100.00;99694.63;5206715;28;20022;-73
2022/11/18 03:27:18;;;;;;;13.30;2.15;;;;;;;7.11;100.00;99691.78;5199292;28;20045;-73
2022/11/18 03:29:58;;;;;;;7.95;2.00;;;;;;;7.07;100.00;99700.28;5200255;28;20038;-72
2022/11/18 03:32:35;;;;;;;23.25;3.42;;;;;;;7.01;100.00;99699.16;5203215;28;20032;-73
2022/11/18 03:35:14;;;;;;;5.07;1.75;;;;;;;6.95;100.00;99700.66;5206456;28;20391;-73
2022/11/18 03:37:46;;;;;;;9.02;2.22;;;;;;;6.96;100.00;99713.00;5205996;28;20067;-74
2022/11/18 03:40:22;;;;;;;7.22;1.85;;;;;;;6.91;100.00;99711.84;5206444;28;20048;-74
2022/11/18 03:42:59;;;;;;;4.20;2.00;;;;;;;6.82;100.00;99708.34;5206447;28;20029;-73
2022/11/18 03:45:46;;;;;;;6.13;1.80;;;;;;;6.82;100.00;99719.00;5206401;28;20028;-73
2022/11/18 03:48:21;;;;;;;4.88;1.73;;;;;;;6.78;100.00;99723.03;5205786;28;20033;-73
2022/11/18 03:51:01;;;;;;;12.20;2.28;;;;;;;6.72;100.00;99727.19;5205641;28;20036;-73
2022/11/18 03:53:37;;;;;;;7.07;1.77;;;;;;;6.69;100.00;99726.72;5206704;28;20017;-74
2022/11/18 03:56:15;;;;;;;4.20;2.42;;;;;;;6.64;100.00;99723.72;5205985;28;20478;-73
2022/11/18 03:59:16;;;;;;;6.95;2.60;;;;;;;6.57;100.00;99736.03;5205968;28;20025;-73
2022/11/18 04:01:54;;;;;;;12.30;2.78;;;;;;;6.46;100.00;99743.38;5202388;28;20033;-74
2022/11/18 04:04:26;;;;;;;6.97;2.60;;;;;;;6.44;100.00;99749.88;5205962;28;20063;-74
2022/11/18 04:07:24;;;;;;;7.20;2.47;;;;;;;6.39;100.00;99747.72;5205653;28;20030;-74
2022/11/18 04:10:13;;;;;;;14.05;3.03;;;;;;;6.31;100.00;99746.88;5206132;28;20030;-74
2022/11/18 04:13:16;;;;;;;4.97;2.63;;;;;;;6.17;100.00;99746.50;5206471;28;20043;-73
2022/11/18 04:15:46;;;;;;;10.07;2.47;;;;;;;6.13;100.00;99749.69;5206836;28;20028;-74
2022/11/18 04:18:17;;;;;;;7.38;2.20;;;;;;;6.08;100.00;99760.00;5206635;28;20013;-73
2022/11/18 04:20:47;;;;;;;8.02;2.53;;;;;;;6.05;100.00;99762.97;5206092;28;20037;-73
2022/11/18 04:23:18;;;;;;;6.28;2.88;;;;;;;6.01;100.00;99762.47;5205498;28;20025;-74
2022/11/18 04:25:48;;;;;;;5.28;2.58;;;;;;;5.96;100.00;99762.94;5202072;28;20021;-74
2022/11/18 04:28:19;;;;;;;13.00;2.70;;;;;;;5.93;100.00;99765.97;5191303;28;20033;-74
2022/11/18 04:30:49;;;;;;;12.27;2.72;;;;;;;5.93;100.00;99773.13;5203761;28;20112;-74
2022/11/18 04:33:20;;;;;;;10.60;3.10;;;;;;;5.88;100.00;99778.06;5203806;28;20033;-74
2022/11/18 04:35:50;;;;;;;11.93;2.47;;;;;;;5.82;100.00;99776.84;5205467;28;20079;-74
2022/11/18 04:38:21;;;;;;;10.30;2.63;;;;;;;5.79;100.00;99787.00;5204673;28;20390;-74
2022/11/18 04:40:51;;;;;;;7.43;2.90;;;;;;;5.71;100.00;99774.50;5204952;28;20446;-72
2022/11/18 04:43:21;;;;;;;10.38;2.67;;;;;;;5.66;100.00;99787.44;5205209;28;20471;-74
2022/11/18 04:45:52;;;;;;;13.07;3.13;;;;;;;5.68;100.00;99788.97;5205005;28;20112;-74
2022/11/18 04:48:23;;;;;;;7.93;2.92;;;;;;;5.70;100.00;99783.47;5204598;28;20507;-73
2022/11/18 04:50:56;;;;;;;10.60;3.40;;;;;;;5.68;100.00;99786.31;5204932;28;20040;-73
2022/11/18 04:53:26;;;;;;;9.30;3.03;;;;;;;5.70;100.00;99783.47;5204802;28;20017;-73
2022/11/18 04:56:05;;;;;;;10.82;3.92;;;;;;;5.83;100.00;99793.69;5205192;28;20567;-74
2022/11/18 04:58:35;;;;;;;9.48;3.97;;;;;;;5.82;100.00;99784.84;5204477;28;20020;-74
2022/11/18 05:01:05;;;;;;;11.40;3.80;;;;;;;5.89;100.00;99791.19;5204784;28;20433;-74
2022/11/18 05:03:36;;;;;;;12.13;3.85;;;;;;;5.91;100.00;99797.22;5204752;28;20044;-73
2022/11/18 05:06:06;;;;;;;11.85;3.55;;;;;;;5.95;100.00;99803.88;5204429;28;20021;-74
2022/11/18 05:08:37;;;;;;;8.77;3.75;;;;;;;5.93;100.00;99803.22;5204447;28;20025;-74
2022/11/18 05:13:58;;;;;;;12.23;3.80;;;;;;;5.87;100.00;99805.66;5193160;28;20573;-73
2022/11/18 05:16:29;;;;;;;6.75;3.65;;;;;;;5.84;100.00;99806.81;5204287;28;20033;-73
2022/11/18 05:19:01;;;;;;;12.63;4.05;;;;;;;5.80;100.00;99802.81;5204076;28;20428;-73
2022/11/18 05:21:31;;;;;;;11.02;3.65;;;;;;;5.80;100.00;99815.28;5204544;28;20045;-73
2022/11/18 05:24:03;;;;;;;15.15;3.33;;;;;;;5.79;100.00;99819.78;5204426;28;20025;-73
2022/11/18 05:26:34;;;;;;;14.55;4.15;;;;;;;5.74;100.00;99822.09;5199276;28;20041;-72
2022/11/18 05:29:04;;;;;;;11.77;3.83;;;;;;;5.71;100.00;99823.22;5190464;28;20387;-73
2022/11/18 05:31:35;;;;;;;9.82;4.07;;;;;;;5.74;100.00;99827.41;5200959;28;20309;-74
2022/11/18 05:34:05;;;;;;;16.55;3.45;;;;;;;5.73;100.00;99833.72;5204026;28;20029;-73
2022/11/18 05:36:36;;;;;;;11.80;4.00;;;;;;;5.72;100.00;99835.56;5203819;28;20028;-74
2022/11/18 05:39:06;;;;;;;10.88;4.13;;;;;;;5.76;100.00;99844.03;5203539;28;20117;-74
2022/11/18 05:44:26;;;;;;;19.10;6.20;;;;;;;5.81;100.00;99844.38;5204150;28;20112;-73
2022/11/18 05:46:56;;;;;;;20.17;4.68;;;;;;;5.84;100.00;99848.56;5203933;28;20117;-73
2022/11/18 05:49:27;;;;;;;13.55;3.63;;;;;;;5.81;100.00;99847.06;5203695;28;20032;-73
2022/11/18 05:51:57;;;;;;;10.60;4.13;;;;;;;5.82;100.00;99853.22;5204357;28;20035;-72
2022/11/18 05:54:28;;;;;;;9.25;3.83;;;;;;;5.82;100.00;99851.38;5203782;28;20048;-72
2022/11/18 05:56:59;;;;;;;12.90;3.60;;;;;;;5.83;100.00;99863.72;5203607;28;20099;-72
2022/11/18 05:59:29;;;;;;;13.38;4.07;;;;;;;5.84;100.00;99851.25;5203847;28;20021;-73
2022/11/18 06:02:10;;;;;;;10.25;4.13;;;;;;;5.88;100.00;99857.91;5203972;28;20025;-73
2022/11/18 06:04:45;;;;;;;11.40;3.65;;;;;;;5.89;100.00;99867.56;5204394;28;20068;-73
2022/11/18 06:07:18;;;;;;;8.13;3.45;;;;;;;5.86;100.00;99863.38;5203419;28;20395;-73
2022/11/18 06:09:53;;;;;;;17.73;6.38;;;;;;;5.79;100.00;99874.84;5203870;28;20029;-73
2022/11/18 06:12:25;;;;;;;;;;;;;;;5.76;100.00;99875.97;5204104;28;20034;-73
2022/11/18 06:14:59;;;;;;;11.52;3.15;;;;;;;5.70;100.00;99882.78;5203882;28;20381;-73
2022/11/18 06:17:52;;;;;;;11.55;4.70;;;;;;;5.79;100.00;99896.97;5203653;28;20021;-73
2022/11/18 06:20:23;;;;;;;7.45;3.60;;;;;;;5.79;100.00;99882.81;5203735;28;20084;-72
2022/11/18 06:22:56;;;;;;;9.68;4.47;;;;;;;5.77;100.00;99890.94;5203330;28;20060;-73
2022/11/18 06:25:28;;;;;;;13.23;3.47;;;;;;;5.77;100.00;99890.94;5200470;28;20029;-73
2022/11/18 06:28:01;;;;;;;8.27;4.03;;;;;;;5.73;100.00;99894.94;5190522;28;20030;-72
2022/11/18 06:30:31;;;;;;;12.93;4.53;;;;;;;5.72;100.00;99899.44;5203350;28;20048;-72
2022/11/18 06:33:02;;;;;;;18.25;4.30;;;;;;;5.71;100.00;99894.25;5200158;28;20053;-72
2022/11/18 06:35:32;;;;;;;24.92;7.00;;;;;;;5.70;100.00;99905.88;5203224;28;20021;-73
2022/11/18 06:38:03;;;;;;;26.83;9.32;;;;;;;5.70;100.00;99903.22;5203065;28;20344;-73
2022/11/18 06:40:34;;;;;;;25.45;9.52;;;;;;;5.69;100.00;99917.53;5202430;28;20487;-73
2022/11/18 06:48:48;;;;;;;17.10;8.15;;;;;;;5.53;100.00;99920.09;5207042;28;20025;-72
2022/11/18 06:51:19;;;;;;;18.08;6.70;;;;;;;5.53;100.00;99920.94;5207386;28;20383;-72
2022/11/18 06:53:50;;;;;;;18.75;5.93;;;;;;;5.54;100.00;99922.59;5206466;28;20021;-71
2022/11/18 06:56:21;;;;;;;13.85;4.32;;;;;;;5.53;100.00;99925.41;5206841;28;20026;-72
2022/11/18 06:58:56;;;;;;;14.63;4.60;;;;;;;5.55;100.00;99934.06;5206770;28;20103;-72
2022/11/18 07:01:28;;;;;;;;;;;;;;;5.53;100.00;99939.56;5207774;28;20032;-72
2022/11/18 07:03:59;;;;;;;14.30;4.90;;;;;;;5.51;100.00;99940.69;5207138;28;19939;-72
2022/11/18 07:06:32;;;;;;;10.82;5.20;;;;;;;5.49;100.00;99943.50;5207233;28;20026;-71
2022/11/18 07:09:05;;;;;;;13.57;4.88;;;;;;;5.50;100.00;99950.50;5206485;28;20032;-72
2022/11/18 07:11:39;;;;;;;16.20;5.25;;;;;;;5.47;100.00;99948.13;5207012;28;20033;-73
2022/11/18 07:14:09;;;;;;;15.80;5.20;;;;;;;5.48;100.00;99962.28;5207307;28;20075;-73
2022/11/18 07:16:40;;;;;;;14.10;5.35;;;;;;;5.50;100.00;99965.63;5206878;28;20591;-71
2022/11/18 07:19:12;;;;;;;19.48;6.22;;;;;;;5.51;100.00;99975.28;5206235;28;20387;-71
2022/11/18 07:21:42;;;;;;;15.85;6.43;;;;;;;5.51;100.00;99985.91;5205499;28;20033;-71
2022/11/18 07:24:14;;;;;;;18.23;6.10;;;;;;;5.50;100.00;99978.94;5206805;28;20020;-71
2022/11/18 07:26:44;;;;;;;13.63;5.57;;;;;;;5.54;100.00;99988.28;5200717;28;20029;-71
2022/11/18 07:29:15;;;;;;;19.92;5.20;;;;;;;5.59;100.00;99996.63;5195855;28;20386;-71
2022/11/18 07:31:45;;;;;;;8.10;4.93;;;;;;;5.70;100.00;99994.53;5201279;28;20071;-70
2022/11/18 07:34:16;;;;;;;13.25;4.80;;;;;;;5.81;100.00;99997.94;5205563;28;20052;-72
2022/11/18 07:36:46;;;;;;;14.75;6.00;;;;;;;5.99;100.00;100001.41;5205444;28;20049;-72
2022/11/18 07:39:17;;;;;;;15.75;4.30;;;;;;;6.15;100.00;99998.84;5205548;28;20025;-72
2022/11/18 07:41:47;;;;;;;7.25;3.30;;;;;;;6.32;100.00;100004.25;5205587;28;20305;-71
2022/11/18 07:44:18;;;;;;;11.23;3.88;;;;;;;6.49;100.00;100006.00;5205495;28;20041;-71
2022/11/18 07:46:48;;;;;;;10.43;3.58;;;;;;;6.70;100.00;100003.75;5205206;28;20071;-71
2022/11/18 07:49:19;;;;;;;8.55;3.13;;;;;;;6.92;100.00;100002.28;5205442;28;20033;-71
2022/11/18 07:51:49;;;;;;;9.88;2.95;;;;;;;7.01;100.00;100006.66;5197168;28;20057;-71
2022/11/18 07:54:19;;;;;;;13.23;3.63;;;;;;;7.11;100.00;100011.00;5200908;28;20056;-71
2022/11/18 07:56:50;;;;;;;10.10;2.63;;;;;;;7.31;100.00;100006.19;5204527;28;20052;-70
2022/11/18 07:59:20;;;;;;;9.88;2.95;;;;;;;7.56;100.00;100023.06;5204552;28;20375;-71
2022/11/18 08:01:51;;;;;;;8.13;2.65;;;;;;;7.65;100.00;100027.41;5205526;28;20084;-71
2022/11/18 08:04:21;;;;;;;14.10;3.80;;;;;;;7.57;100.00;100017.53;5205048;28;20029;-72
2022/11/18 08:06:52;;;;;;;15.30;3.38;;;;;;;7.54;100.00;100023.25;5204987;28;20112;-71
2022/11/18 08:09:22;;;;;;;6.00;2.47;;;;;;;7.43;100.00;100024.41;5204688;28;20029;-70
2022/11/18 08:11:52;;;;;;;9.85;3.15;;;;;;;7.38;100.00;100037.41;5204922;28;20418;-72
2022/11/18 08:14:23;;;;;;;9.88;2.55;;;;;;;7.38;100.00;100023.22;5205247;28;20360;-71
2022/11/18 08:16:54;;;;;;;9.50;2.90;;;;;;;7.39;100.00;100022.22;5204530;28;20053;-70
2022/11/18 08:19:24;;;;;;;8.23;3.00;;;;;;;7.37;100.00;100027.72;5205007;28;20025;-71
2022/11/18 08:21:55;;;;;;;10.48;3.95;;;;;;;7.35;100.00;100035.06;5202138;28;20100;-71
2022/11/18 08:24:25;;;;;;;13.07;3.00;;;;;;;7.37;100.00;100046.38;5194701;28;20064;-70
2022/11/18 08:26:56;;;;;;;7.43;3.15;;;;;;;7.41;100.00;100044.22;5198039;28;20026;-70
2022/11/18 08:29:26;;;;;;;12.20;2.88;;;;;;;7.40;100.00;100039.91;5195803;28;20071;-71
2022/11/18 08:31:57;;;;;;;14.00;3.17;;;;;;;7.42;100.00;100044.06;5200959;28;20036;-71
2022/11/18 08:34:27;;;;;;;6.18;2.55;;;;;;;7.44;100.00;100050.09;5192247;28;20103;-71
2022/11/18 08:36:58;;;;;;;13.23;2.83;;;;;;;7.49;100.00;100044.25;5194115;28;20049;-71
2022/11/18 08:39:29;;;;;;;12.45;3.08;;;;;;;7.48;100.00;100054.09;5203469;28;20068;-70
2022/11/18 08:42:00;;;;;;;8.30;3.00;;;;;;;7.48;100.00;100037.22;5204249;28;20025;-71
2022/11/18 08:44:33;;;;;;;15.13;2.95;;;;;;;7.48;100.00;100047.91;5203094;28;20018;-70
2022/11/18 08:47:03;;;;;;;10.23;4.60;;;;;;;7.48;100.00;100053.22;5202594;28;20380;-71
2022/11/18 08:49:34;;;;;;;10.55;3.38;;;;;;;7.45;100.00;100053.59;5203364;28;20045;-70
2022/11/18 08:52:04;;;;;;;11.57;3.28;;;;;;;7.45;100.00;100062.41;5203490;28;20049;-70
2022/11/18 08:54:35;;;;;;;12.73;3.38;;;;;;;7.49;100.00;100065.59;5203118;28;20485;-71
2022/11/18 08:57:05;;;;;;;14.48;3.70;;;;;;;7.50;100.00;100065.44;5202195;28;20029;-70
2022/11/18 08:59:36;;;;;;;20.02;3.65;;;;;;;7.53;100.00;100069.63;5202920;28;20029;-71
2022/11/18 09:02:13;;;;;;;14.10;3.42;;;;;;;7.55;100.00;100075.59;5203354;28;20025;-71
2022/11/18 09:04:49;;;;;;;9.35;2.88;;;;;;;7.65;100.00;100083.47;5202680;28;20033;-70
2022/11/18 09:07:20;;;;;;;15.70;3.58;;;;;;;7.67;100.00;100090.28;5202152;28;20113;-71
2022/11/18 09:09:51;;;;;;;13.85;3.05;;;;;;;7.74;100.00;100091.31;5201454;28;20033;-71
2022/11/18 09:12:21;;;;;;;12.52;3.13;;;;;;;7.81;100.00;100088.81;5202586;28;20025;-71
2022/11/18 09:14:52;;;;;;;11.23;3.60;;;;;;;7.86;100.00;100081.13;5202540;28;20017;-70
2022/11/18 09:17:22;;;;;;;13.05;3.97;;;;;;;7.91;100.00;100091.31;5201722;28;20025;-71
2022/11/18 09:19:53;;;;;;;11.75;2.95;;;;;;;8.00;100.00;100091.13;5189846;28;20020;-71
2022/11/18 09:22:25;;;;;;;11.77;3.55;;;;;;;8.05;100.00;100088.78;5201522;28;20025;-71
2022/11/18 09:24:56;;;;;;;8.70;3.30;;;;;;;8.16;100.00;100095.63;5189158;28;20090;-71
2022/11/18 09:27:26;;;;;;;15.18;3.38;;;;;;;8.24;100.00;100105.50;5193347;28;20022;-71
2022/11/18 09:29:56;;;;;;;10.63;3.25;;;;;;;8.30;100.00;100105.63;5196776;28;20025;-71
2022/11/18 09:32:27;;;;;;;10.43;2.60;;;;;;;8.33;100.00;100109.78;5198251;28;20105;-71
2022/11/18 09:34:58;;;;;;;12.18;4.10;;;;;;;8.36;100.00;100108.63;5202001;28;20056;-72
2022/11/18 09:37:29;;;;;;;12.18;3.15;;;;;;;8.38;100.00;100112.00;5204223;28;20029;-72
2022/11/18 09:39:59;;;;;;;13.68;3.63;;;;;;;8.42;100.00;100116.81;5205339;28;20029;-69
2022/11/18 09:42:51;;;;;;;9.32;3.17;;;;;;;8.48;100.00;100108.16;5204402;28;20044;-70
2022/11/18 09:45:27;;;;;;;12.88;3.67;;;;;;;8.57;100.00;100122.31;5190706;28;20022;-72
2022/11/18 09:48:02;;;;;;;15.73;4.00;;;;;;;8.59;100.00;100124.84;5201098;28;20438;-71
2022/11/18 09:50:32;;;;;;;15.10;3.60;;;;;;;8.65;100.00;100127.66;5200940;28;20036;-71
2022/11/18 09:53:23;;;;;;;9.63;3.85;;;;;;;8.66;100.00;100128.47;5201603;28;20029;-71
2022/11/18 09:55:54;;;;;;;23.30;4.90;;;;;;;8.72;100.00;100122.44;5201222;28;20482;-72
2022/11/18 09:58:30;;;;;;;8.68;3.45;;;;;;;8.77;100.00;100125.44;5201050;28;20028;-72
2022/11/18 10:01:02;;;;;;;16.02;4.05;;;;;;;8.81;100.00;100140.13;5201608;28;20037;-69
2022/11/18 10:03:33;;;;;;;14.13;4.05;;;;;;;8.86;100.00;100129.75;5202073;28;20025;-70
2022/11/18 10:06:12;;;;;;;7.93;4.10;;;;;;;8.90;100.00;100140.94;5200852;28;20041;-70
2022/11/18 10:09:24;;;;;;;8.55;4.07;;;;;;;8.97;100.00;100148.09;5201163;28;20025;-71
2022/11/18 10:12:01;;;;;;;9.68;3.97;;;;;;;9.03;100.00;100147.41;5200864;28;20072;-70
2022/11/18 10:14:42;;;;;;;12.77;3.53;;;;;;;9.07;100.00;100148.72;5201435;28;20021;-70
2022/11/18 10:17:45;;;;;;;11.50;3.60;;;;;;;9.13;100.00;100155.22;5200826;28;20390;-70
2022/11/18 10:20:47;;;;;;;8.23;3.25;;;;;;;9.17;100.00;100153.88;5198854;28;20124;-71
2022/11/18 10:23:23;;;;;;;6.57;3.50;;;;;;;9.22;100.00;100150.69;5199200;28;20394;-70
2022/11/18 10:25:54;;;;;;;11.57;3.67;;;;;;;9.21;100.00;100155.19;5194584;28;20025;-71
2022/11/18 10:28:29;;;;;;;9.02;3.05;;;;;;;9.21;100.00;100155.19;5200128;28;20033;-70
2022/11/18 10:31:09;;;;;;;11.85;2.95;;;;;;;9.25;100.00;100153.00;5200569;28;20037;-71
2022/11/18 10:33:41;;;;;;;10.60;3.70;;;;;;;9.24;100.00;100154.88;5204192;28;20021;-71
2022/11/18 10:36:25;;;;;;;9.65;3.20;;;;;;;9.28;100.00;100160.69;5204965;28;20025;-71
2022/11/18 10:39:07;;;;;;;6.53;3.05;;;;;;;9.27;100.00;100156.34;5193461;28;20403;-70
2022/11/18 10:41:48;;;;;;;8.23;2.90;;;;;;;9.30;100.00;100169.38;5205263;28;20104;-71
2022/11/18 10:44:32;;;;;;;14.35;3.17;;;;;;;9.33;100.00;100169.03;5205231;28;20051;-71
2022/11/18 10:47:18;;;;;;;4.57;2.65;;;;;;;9.35;100.00;100167.03;5204807;28;20025;-71
2022/11/18 10:49:50;;;;;;;7.13;3.03;;;;;;;9.36;100.00;100179.38;5204608;28;20037;-71
2022/11/18 10:52:21;;;;;;;9.70;2.95;;;;;;;9.34;100.00;100166.19;5204994;28;20422;-70
2022/11/18 10:55:08;;;;;;;11.63;3.05;;;;;;;9.37;100.00;100172.19;5198118;28;20021;-71
2022/11/18 10:57:42;;;;;;;6.60;3.28;;;;;;;9.38;100.00;100173.84;5199640;28;20025;-71
2022/11/18 11:00:34;;;;;;;9.32;3.00;;;;;;;9.48;100.00;100177.97;5204303;28;20030;-71
2022/11/18 11:03:21;;;;;;;14.65;3.20;;;;;;;9.45;100.00;100190.91;5204697;28;20026;-71
2022/11/18 11:06:26;;;;;;;20.23;4.28;;;;;;;9.47;100.00;100192.38;5204733;28;20025;-70
2022/11/18 11:09:01;;;;;;;10.43;3.13;;;;;;;9.53;100.00;100186.31;5204064;28;20029;-70
2022/11/18 11:11:35;;;;;;;7.15;2.60;;;;;;;9.51;100.00;100193.69;5204861;28;20033;-71
2022/11/18 11:14:26;;;;;;;6.43;2.75;;;;;;;9.57;100.00;100197.53;5204584;28;20029;-71
2022/11/18 11:17:08;;;;;;;12.05;3.30;;;;;;;9.53;100.00;100188.16;5203623;28;20028;-72
2022/11/18 11:20:08;;;;;;;11.38;3.33;;;;;;;9.57;100.00;100186.81;5204754;28;20026;-72
2022/11/18 11:22:38;;;;;;;13.75;5.18;;;;;;;9.53;100.00;100183.63;5201646;28;20037;-72
2022/11/18 11:25:28;;;;;;;11.15;3.42;;;;;;;9.55;100.00;100188.84;5200904;28;20107;-72
2022/11/18 11:28:25;;;;;;;16.05;3.03;;;;;;;9.51;100.00;100176.81;5191206;28;20017;-72
2022/11/18 11:31:01;;;;;;;14.63;3.38;;;;;;;9.55;100.00;100183.50;5191751;28;20479;-72
2022/11/18 11:33:46;;;;;;;6.25;2.55;;;;;;;9.52;100.00;100189.19;5200682;28;20475;-72
2022/11/18 11:36:35;;;;;;;10.30;2.63;;;;;;;9.53;100.00;100188.16;5203962;28;20029;-71
2022/11/18 11:39:33;;;;;;;14.55;2.85;;;;;;;9.54;100.00;100192.53;5203606;28;20030;-71
2022/11/18 11:42:21;;;;;;;10.20;2.22;;;;;;;9.53;100.00;100193.53;5204192;28;20041;-71
2022/11/18 11:45:03;;;;;;;11.55;2.13;;;;;;;9.54;100.00;100203.25;5203732;28;20025;-71
2022/11/18 11:47:55;;;;;;;6.63;2.58;;;;;;;9.54;100.00;100205.91;5203610;28;20072;-72
2022/11/18 11:50:32;;;;;;;7.18;2.70;;;;;;;9.56;100.00;100206.56;5194054;28;20025;-72
2022/11/18 11:53:02;;;;;;;10.18;3.10;;;;;;;9.61;100.00;100206.88;5203900;28;20029;-72
2022/11/18 11:55:50;;;;;;;9.48;2.25;;;;;;;9.62;100.00;100205.03;5203736;28;20036;-72
2022/11/18 11:58:27;;;;;;;10.07;2.53;;;;;;;9.67;100.00;100214.19;5202648;28;20475;-73
2022/11/18 12:01:26;;;;;;;9.38;1.95;;;;;;;9.70;100.00;100213.03;5203453;28;20083;-71
2022/11/18 12:04:15;;;;;;;7.68;1.90;;;;;;;9.73;100.00;100207.31;5203123;28;20022;-72
2022/11/18 12:06:50;;;;;;;9.32;2.58;;;;;;;9.77;100.00;100211.31;5203091;28;20482;-71
2022/11/18 12:09:35;;;;;;;12.85;2.95;;;;;;;9.82;100.00;100214.28;5203308;28;20026;-72
2022/11/18 12:12:37;;;;;;;10.57;3.30;;;;;;;9.85;100.00;100219.31;5203466;28;20075;-72
2022/11/18 12:15:16;;;;;;;8.98;2.25;;;;;;;9.90;100.00;100218.78;5203275;28;20025;-72
2022/11/18 12:18:20;;;;;;;5.30;2.30;;;;;;;9.94;100.00;100220.94;5203160;28;20379;-71
2022/11/18 12:20:52;;;;;;;9.88;2.00;;;;;;;9.93;100.00;100219.22;5198992;28;20071;-71